FNGI

Ngjiva Pereira Airport

Ngiva, Angola
METAR FNGI 211300Z 06008KT CAVOK 24/05 Q1020
Observed Flight Rules
Jul-21 @ 13:00 UTC (39 minutes ago) Visual Flight Rules
Wind Visibility Clouds
60° at 8 knots 10,000+ meters
  • Clear skies
Temperatures Readings
Current 24°C / 75°F
Dewpoint 5°C / 41°F
Humidity 29%
Altimeter 30.12" Hg
Pressure 1020 hPa
Elevation 1087
METAR FNGI 211300Z 06008KT CAVOK 24/05 Q1020
Observed Flight Rules
Jul-21 @ 13:00 UTC
(39 minutes ago)
VFR
Wind Visibility
60° at 8 knots 10,000+ meters
Clouds
  • Clear skies
Temperature Dewpoint
24°C / 75°F 5°C / 41°F
Humidity Altimeter Pressure
29% 30.12" Hg 1020 hPa